Time;durP1;ratioP1;P1;durP2;ratioP2;P2;SDS_P1;SDS_P2;PMS_P1;PMS_P2;Temp;Humidity;BMP_temperature;BMP_pressure;BME280_temperature;BME280_humidity;BME280_pressure;Samples;Min_cycle;Max_cycle;Signal;HPM_P1;HPM_P2
2021/06/30 00:01:10;;;;;;;3.55;1.08;;;16.50;92.60;;;;;;5072897;28;20115;-79
2021/06/30 00:03:36;;;;;;;2.25;1.10;;;16.60;92.60;;;;;;5072702;28;20057;-79
2021/06/30 00:06:02;;;;;;;2.38;1.00;;;16.50;92.70;;;;;;5074047;28;20464;-79
2021/06/30 00:08:27;;;;;;;2.38;0.82;;;16.50;92.80;;;;;;5074046;28;20041;-79
2021/06/30 00:10:53;;;;;;;2.25;0.95;;;16.50;92.80;;;;;;5072677;28;20115;-80
2021/06/30 00:13:21;;;;;;;3.03;1.23;;;16.50;93.00;;;;;;5074334;28;20013;-79
2021/06/30 00:15:46;;;;;;;2.10;0.85;;;16.40;93.00;;;;;;5056578;28;20024;-79
2021/06/30 00:18:12;;;;;;;1.73;0.80;;;16.40;93.10;;;;;;5072474;28;20550;-79
2021/06/30 00:20:38;;;;;;;2.53;1.08;;;16.40;93.10;;;;;;5073676;28;20544;-78
2021/06/30 00:23:04;;;;;;;2.05;0.90;;;16.30;93.10;;;;;;5055805;28;20032;-79
2021/06/30 00:25:31;;;;;;;2.45;0.80;;;16.30;93.10;;;;;;5055129;28;20029;-79
2021/06/30 00:27:57;;;;;;;1.75;0.70;;;16.30;93.20;;;;;;5073702;28;20089;-78
2021/06/30 00:30:22;;;;;;;1.30;0.77;;;16.30;93.20;;;;;;5074180;28;20468;-78
2021/06/30 00:32:48;;;;;;;2.60;0.88;;;16.40;93.20;;;;;;5072775;28;20037;-78
2021/06/30 00:35:16;;;;;;;3.70;1.17;;;16.40;93.30;;;;;;5073771;28;20028;-78
2021/06/30 00:37:42;;;;;;;1.98;0.95;;;16.40;93.30;;;;;;5073566;28;20024;-77
2021/06/30 00:40:09;;;;;;;3.63;1.10;;;16.40;93.30;;;;;;5073517;28;20047;-77
2021/06/30 00:42:36;;;;;;;3.03;0.98;;;16.40;93.20;;;;;;5073548;28;20067;-77
2021/06/30 00:45:04;;;;;;;2.55;0.90;;;16.30;93.10;;;;;;5072119;28;20135;-77
2021/06/30 00:47:30;;;;;;;3.10;0.77;;;16.30;93.10;;;;;;5072073;28;20089;-77
2021/06/30 00:49:55;;;;;;;1.65;0.88;;;16.30;93.00;;;;;;5072172;28;20476;-78
2021/06/30 00:52:21;;;;;;;1.38;0.70;;;16.20;93.00;;;;;;5073472;28;20368;-77
2021/06/30 00:54:47;;;;;;;2.05;0.93;;;16.30;93.10;;;;;;5072154;28;20060;-77
2021/06/30 00:57:14;;;;;;;4.20;0.85;;;16.30;93.00;;;;;;5072070;28;20287;-77
2021/06/30 00:59:40;;;;;;;2.28;0.75;;;16.20;93.00;;;;;;5072012;28;20033;-77
2021/06/30 01:02:06;;;;;;;1.83;0.80;;;16.30;93.30;;;;;;5073370;28;20074;-77
2021/06/30 01:04:31;;;;;;;4.93;1.20;;;16.30;93.10;;;;;;5055255;28;20032;-79
2021/06/30 01:06:57;;;;;;;3.40;0.80;;;16.20;93.10;;;;;;5071866;28;20041;-77
2021/06/30 01:09:23;;;;;;;1.60;0.85;;;16.20;93.00;;;;;;5072088;28;20028;-79
2021/06/30 01:11:49;;;;;;;2.60;1.25;;;16.30;93.10;;;;;;5072122;28;20035;-77
2021/06/30 01:14:28;;;;;;;2.20;0.98;;;16.30;93.10;;;;;;5073290;28;20108;-77
2021/06/30 01:16:55;;;;;;;1.88;0.90;;;16.20;93.10;;;;;;5055112;28;20033;-78
2021/06/30 01:19:22;;;;;;;3.10;1.00;;;16.20;93.00;;;;;;5055025;28;20028;-77
2021/06/30 01:21:49;;;;;;;2.33;0.70;;;16.20;93.00;;;;;;5055075;28;20053;-78
2021/06/30 01:24:15;;;;;;;2.80;1.02;;;16.20;93.00;;;;;;5071759;28;20361;-77
2021/06/30 01:26:41;;;;;;;1.98;1.00;;;16.20;93.00;;;;;;5055063;28;20119;-77
2021/06/30 01:29:07;;;;;;;3.35;1.10;;;16.20;93.00;;;;;;5055023;28;20520;-77
2021/06/30 01:31:33;;;;;;;1.60;0.80;;;16.20;93.00;;;;;;5072913;28;20025;-77
2021/06/30 01:33:59;;;;;;;1.95;0.98;;;16.20;93.00;;;;;;5072964;28;20412;-77
2021/06/30 01:36:25;;;;;;;3.17;1.05;;;16.20;93.00;;;;;;5072635;28;20429;-77
2021/06/30 01:38:50;;;;;;;3.85;1.20;;;16.20;93.00;;;;;;5075506;28;20025;-76
2021/06/30 01:41:16;;;;;;;2.55;1.02;;;16.20;92.90;;;;;;5075792;28;20043;-76
2021/06/30 01:43:42;;;;;;;2.97;1.17;;;16.20;93.00;;;;;;5075582;28;20361;-76
2021/06/30 01:46:08;;;;;;;2.17;1.08;;;16.10;93.00;;;;;;5076720;28;20036;-76
2021/06/30 01:48:34;;;;;;;4.18;1.15;;;16.10;93.00;;;;;;5076555;28;20028;-77
2021/06/30 01:51:00;;;;;;;2.78;1.25;;;16.10;93.10;;;;;;5076520;28;20430;-76
2021/06/30 01:53:26;;;;;;;3.53;1.20;;;16.10;93.20;;;;;;5076387;28;20033;-78
2021/06/30 01:55:53;;;;;;;2.30;1.20;;;16.10;93.20;;;;;;5075366;28;20059;-79
2021/06/30 01:58:21;;;;;;;2.58;1.38;;;16.10;93.20;;;;;;5076470;28;20115;-77
2021/06/30 02:00:54;;;;;;;1.90;1.05;;;16.10;93.30;;;;;;5075170;28;20075;-80
2021/06/30 02:03:20;;;;;;;2.80;1.05;;;16.10;93.30;;;;;;5058456;28;20060;-81
2021/06/30 02:05:46;;;;;;;4.35;1.25;;;16.00;93.40;;;;;;5076411;28;20507;-81
2021/06/30 02:08:12;;;;;;;3.58;1.17;;;16.00;93.40;;;;;;5076338;28;20025;-81
2021/06/30 02:10:38;;;;;;;2.42;1.25;;;15.90;93.50;;;;;;5058363;28;20028;-81
2021/06/30 02:13:05;;;;;;;3.10;1.38;;;15.90;93.50;;;;;;5076127;28;20055;-82
2021/06/30 02:15:32;;;;;;;1.77;1.08;;;15.90;93.60;;;;;;5058538;28;20020;-82
2021/06/30 02:17:59;;;;;;;4.38;1.30;;;15.90;93.80;;;;;;5074859;28;20035;-82
2021/06/30 02:20:26;;;;;;;1.63;0.88;;;15.90;93.80;;;;;;5074930;28;20035;-81
2021/06/30 02:22:53;;;;;;;2.53;0.93;;;15.90;94.10;;;;;;5058109;28;20052;-78
2021/06/30 02:25:24;;;;;;;2.53;0.85;;;15.90;93.90;;;;;;5058026;28;20512;-80
2021/06/30 02:27:51;;;;;;;1.63;0.90;;;15.80;93.90;;;;;;5075847;28;20016;-79
2021/06/30 02:30:20;;;;;;;2.25;0.80;;;15.80;94.20;;;;;;5074597;28;20017;-78
2021/06/30 02:32:46;;;;;;;2.33;1.20;;;15.80;94.00;;;;;;5074570;28;20024;-78
2021/06/30 02:35:19;;;;;;;2.63;0.80;;;15.80;94.00;;;;;;5074515;28;20047;-79
2021/06/30 02:37:47;;;;;;;4.20;1.10;;;15.80;93.90;;;;;;5075713;28;20028;-77
2021/06/30 02:40:14;;;;;;;2.78;0.93;;;15.80;94.00;;;;;;5074459;28;20060;-80
2021/06/30 02:42:41;;;;;;;3.60;0.90;;;15.70;93.90;;;;;;5075637;28;20054;-80
2021/06/30 02:45:09;;;;;;;3.92;1.17;;;15.70;93.90;;;;;;5074503;28;20476;-79
2021/06/30 02:47:36;;;;;;;1.85;0.80;;;15.70;93.90;;;;;;5073976;28;20036;-81
2021/06/30 02:50:04;;;;;;;2.13;1.00;;;15.70;93.90;;;;;;5075200;28;20021;-81
2021/06/30 02:52:30;;;;;;;2.10;0.93;;;15.70;93.90;;;;;;5075450;28;20035;-79
2021/06/30 02:54:55;;;;;;;4.43;1.13;;;15.70;93.80;;;;;;5074272;28;20100;-79
2021/06/30 02:57:21;;;;;;;2.58;1.00;;;15.70;93.90;;;;;;5057502;28;20500;-79
2021/06/30 02:59:47;;;;;;;2.83;1.15;;;15.70;93.90;;;;;;5074209;28;20555;-79
2021/06/30 03:02:12;;;;;;;4.32;1.05;;;15.70;93.90;;;;;;5075309;28;20040;-78
2021/06/30 03:04:38;;;;;;;5.05;1.23;;;15.70;93.90;;;;;;5074286;28;20175;-78
2021/06/30 03:07:03;;;;;;;2.70;1.00;;;15.60;94.00;;;;;;5075237;28;20384;-79
2021/06/30 03:09:29;;;;;;;1.92;0.90;;;15.70;94.10;;;;;;5074068;28;20033;-78
2021/06/30 03:11:55;;;;;;;2.55;1.33;;;15.60;94.00;;;;;;5073957;28;20028;-78
2021/06/30 03:14:20;;;;;;;2.40;1.00;;;15.60;94.00;;;;;;5073906;28;20542;-76
2021/06/30 03:16:48;;;;;;;1.75;0.90;;;15.70;94.10;;;;;;5075012;28;20494;-77
2021/06/30 03:19:14;;;;;;;3.70;1.48;;;15.60;94.10;;;;;;5074834;28;20017;-77
2021/06/30 03:21:40;;;;;;;4.90;1.30;;;15.60;94.10;;;;;;5074787;28;20575;-77
2021/06/30 03:24:06;;;;;;;2.35;1.08;;;15.60;94.30;;;;;;5073730;28;20110;-77
2021/06/30 03:26:31;;;;;;;3.80;1.27;;;15.50;94.40;;;;;;5074773;28;20503;-77
2021/06/30 03:29:00;;;;;;;3.30;1.27;;;15.50;94.50;;;;;;5056868;28;20150;-77
2021/06/30 03:31:26;;;;;;;2.88;1.50;;;15.50;94.60;;;;;;5073461;28;20472;-77
2021/06/30 03:33:51;;;;;;;4.28;1.65;;;15.40;94.50;;;;;;5074660;28;20032;-77
2021/06/30 03:36:17;;;;;;;2.35;1.15;;;15.40;94.60;;;;;;5073306;28;20500;-77
2021/06/30 03:38:42;;;;;;;4.88;1.55;;;15.40;94.60;;;;;;5073352;28;20033;-77
2021/06/30 03:41:08;;;;;;;3.50;1.83;;;15.50;94.60;;;;;;5073331;28;20039;-78
2021/06/30 03:43:34;;;;;;;2.75;1.58;;;15.40;94.60;;;;;;5074324;28;20032;-77
2021/06/30 03:45:59;;;;;;;3.15;1.30;;;15.40;94.50;;;;;;5073277;28;20032;-77
2021/06/30 03:48:25;;;;;;;3.83;1.45;;;15.40;94.60;;;;;;5072931;28;20510;-77
2021/06/30 03:50:51;;;;;;;3.45;1.70;;;15.40;94.60;;;;;;5074329;28;20024;-77
2021/06/30 03:53:16;;;;;;;3.10;1.30;;;15.40;94.60;;;;;;5073095;28;20032;-76
2021/06/30 03:55:42;;;;;;;3.08;1.58;;;15.40;94.60;;;;;;5073056;28;20391;-77
2021/06/30 03:58:07;;;;;;;2.80;1.58;;;15.40;94.60;;;;;;5072526;28;20501;-77
2021/06/30 04:00:33;;;;;;;2.35;1.40;;;15.40;94.60;;;;;;5056106;28;20036;-77
2021/06/30 04:02:59;;;;;;;2.38;1.30;;;15.40;94.60;;;;;;5073105;28;20107;-77
2021/06/30 04:05:24;;;;;;;3.55;1.55;;;15.40;94.60;;;;;;5072797;28;20111;-76
2021/06/30 04:07:50;;;;;;;2.40;1.25;;;15.40;94.60;;;;;;5071061;28;20029;-77
2021/06/30 04:10:20;;;;;;;2.75;1.60;;;15.40;94.60;;;;;;5074011;28;20025;-78
2021/06/30 04:12:46;;;;;;;2.72;1.40;;;15.40;94.60;;;;;;5072864;28;20078;-77
2021/06/30 04:15:12;;;;;;;3.97;1.38;;;15.40;94.60;;;;;;5071950;28;20404;-77
2021/06/30 04:17:37;;;;;;;4.03;1.42;;;15.40;94.60;;;;;;5072258;28;20124;-77
2021/06/30 04:20:05;;;;;;;3.72;1.42;;;15.40;94.60;;;;;;5073833;28;20046;-77
2021/06/30 04:22:31;;;;;;;2.47;1.42;;;15.40;94.60;;;;;;5072324;28;20052;-77
2021/06/30 04:24:57;;;;;;;2.55;1.30;;;15.50;94.60;;;;;;5073657;28;20029;-77
2021/06/30 04:27:22;;;;;;;3.63;1.60;;;15.40;94.50;;;;;;5072533;28;20032;-77
2021/06/30 04:29:48;;;;;;;9.10;1.55;;;15.50;94.60;;;;;;5072573;28;20025;-78
2021/06/30 04:32:14;;;;;;;3.25;1.40;;;15.40;94.50;;;;;;5072563;28;20025;-78
2021/06/30 04:34:40;;;;;;;4.25;1.67;;;15.40;94.50;;;;;;5072534;28;20021;-78
2021/06/30 04:37:06;;;;;;;3.88;1.75;;;15.50;94.50;;;;;;5073553;28;20029;-78
2021/06/30 04:39:31;;;;;;;3.08;1.67;;;15.50;94.50;;;;;;5072303;28;20028;-77
2021/06/30 04:41:57;;;;;;;2.92;1.75;;;15.50;94.60;;;;;;5072102;28;20534;-78
2021/06/30 04:44:23;;;;;;;3.10;1.65;;;15.50;94.60;;;;;;5072213;28;20037;-78
2021/06/30 04:46:48;;;;;;;3.47;1.60;;;15.40;94.60;;;;;;5072013;28;20070;-77
2021/06/30 04:49:14;;;;;;;3.22;1.60;;;15.50;94.60;;;;;;5073296;28;20091;-78
2021/06/30 04:51:41;;;;;;;4.38;1.88;;;15.50;94.70;;;;;;5072034;28;20468;-78
2021/06/30 04:54:06;;;;;;;3.70;1.95;;;15.40;94.60;;;;;;5071737;28;20029;-78
2021/06/30 04:56:39;;;;;;;3.60;1.95;;;15.40;94.60;;;;;;5071645;28;20028;-79
2021/06/30 04:59:06;;;;;;;3.60;1.80;;;15.40;94.90;;;;;;5071502;28;20046;-79
2021/06/30 05:01:32;;;;;;;3.45;1.90;;;15.40;94.60;;;;;;5072872;28;20020;-78
2021/06/30 05:03:58;;;;;;;3.67;1.90;;;15.40;94.60;;;;;;5071284;28;20112;-79
2021/06/30 05:06:24;;;;;;;2.53;1.42;;;15.40;94.50;;;;;;5054890;28;20111;-78
2021/06/30 05:08:50;;;;;;;4.50;2.15;;;15.40;94.50;;;;;;5072758;28;20035;-79
2021/06/30 05:11:15;;;;;;;4.00;2.28;;;15.40;94.50;;;;;;5072762;28;20392;-79
2021/06/30 05:13:41;;;;;;;5.03;2.65;;;15.40;94.50;;;;;;5079626;28;20157;-78
2021/06/30 05:16:07;;;;;;;4.05;2.10;;;15.40;94.50;;;;;;5078180;28;20025;-79
2021/06/30 05:18:32;;;;;;;4.03;2.05;;;15.40;94.40;;;;;;5061882;28;20036;-79
2021/06/30 05:20:58;;;;;;;5.90;2.22;;;15.40;94.50;;;;;;5078295;28;20032;-78
2021/06/30 05:23:24;;;;;;;6.38;2.00;;;15.40;94.40;;;;;;5079575;28;20060;-79
2021/06/30 05:25:50;;;;;;;4.10;2.25;;;15.40;94.40;;;;;;5079522;28;20024;-79
2021/06/30 05:28:15;;;;;;;3.88;1.92;;;15.40;94.40;;;;;;5078795;28;20016;-78
2021/06/30 05:30:41;;;;;;;4.70;2.67;;;15.40;94.40;;;;;;5079839;28;20025;-78
2021/06/30 05:33:07;;;;;;;5.32;2.60;;;15.40;94.40;;;;;;5078344;28;20037;-78
2021/06/30 05:35:32;;;;;;;4.95;2.70;;;15.40;94.40;;;;;;5076727;28;20024;-78
2021/06/30 05:37:58;;;;;;;4.82;2.53;;;15.40;94.40;;;;;;5077930;28;20028;-78
2021/06/30 05:40:24;;;;;;;5.32;2.60;;;15.40;94.40;;;;;;5079539;28;20035;-78
2021/06/30 05:42:49;;;;;;;4.93;2.55;;;15.40;94.40;;;;;;5078499;28;20025;-78
2021/06/30 05:45:16;;;;;;;7.07;2.70;;;15.40;94.40;;;;;;5079440;28;20029;-78
2021/06/30 05:47:46;;;;;;;5.68;2.83;;;15.40;94.30;;;;;;5078108;28;20120;-78
2021/06/30 05:50:12;;;;;;;5.53;2.70;;;15.40;94.30;;;;;;5079530;28;20103;-78
2021/06/30 05:52:39;;;;;;;6.18;2.72;;;15.40;94.30;;;;;;5078158;28;20050;-78
2021/06/30 05:55:06;;;;;;;5.88;3.00;;;15.40;94.30;;;;;;5079470;28;20016;-78
2021/06/30 05:57:32;;;;;;;7.57;3.78;;;15.40;94.30;;;;;;5075687;28;20020;-79
2021/06/30 05:59:58;;;;;;;4.47;2.55;;;15.50;94.40;;;;;;5058840;28;20033;-78
2021/06/30 06:02:23;;;;;;;5.68;2.60;;;15.40;94.40;;;;;;5058109;28;20039;-78
2021/06/30 06:04:49;;;;;;;5.55;2.75;;;15.50;94.50;;;;;;5057611;28;20033;-78
2021/06/30 06:07:15;;;;;;;5.82;2.65;;;15.40;94.50;;;;;;5057646;28;20116;-78
2021/06/30 06:09:40;;;;;;;5.82;3.47;;;15.50;94.40;;;;;;5057819;28;20060;-78
2021/06/30 06:12:06;;;;;;;5.18;2.42;;;15.50;94.40;;;;;;5057425;28;20104;-77
2021/06/30 06:14:32;;;;;;;5.45;2.90;;;15.50;94.50;;;;;;5057116;28;20040;-78
2021/06/30 06:16:58;;;;;;;4.68;2.80;;;15.50;94.50;;;;;;5059076;28;20054;-78
2021/06/30 06:19:25;;;;;;;5.47;3.03;;;15.50;94.50;;;;;;5058831;28;20029;-78
2021/06/30 06:21:51;;;;;;;5.43;2.53;;;15.50;94.50;;;;;;5041177;28;20048;-78
2021/06/30 06:24:18;;;;;;;4.18;2.40;;;15.50;94.50;;;;;;5055289;28;20553;-78
2021/06/30 06:26:44;;;;;;;5.82;2.58;;;15.50;94.50;;;;;;5055596;28;20037;-79
2021/06/30 06:29:10;;;;;;;4.40;2.53;;;15.60;94.50;;;;;;5055749;28;20495;-78
2021/06/30 06:31:36;;;;;;;4.40;2.70;;;15.60;94.40;;;;;;5056186;28;20024;-78
2021/06/30 06:34:02;;;;;;;5.05;2.50;;;15.60;94.40;;;;;;5054827;28;20103;-78
2021/06/30 06:36:28;;;;;;;3.80;2.33;;;15.60;94.40;;;;;;5054840;28;20163;-78
2021/06/30 06:38:54;;;;;;;4.22;2.03;;;15.60;94.40;;;;;;5038034;28;20056;-79
2021/06/30 06:41:19;;;;;;;3.72;2.00;;;15.60;94.40;;;;;;5055808;28;20502;-78
2021/06/30 06:43:46;;;;;;;7.50;2.00;;;15.60;94.40;;;;;;5054488;28;20139;-78
2021/06/30 06:46:11;;;;;;;3.50;2.20;;;15.70;94.40;;;;;;5054356;28;20061;-78
2021/06/30 06:48:37;;;;;;;4.43;2.28;;;15.70;94.40;;;;;;5055551;28;20072;-79
2021/06/30 06:51:04;;;;;;;4.47;1.92;;;15.70;94.40;;;;;;5037771;28;20159;-79
2021/06/30 06:53:29;;;;;;;3.35;2.00;;;15.70;94.40;;;;;;5055601;28;20025;-79
2021/06/30 06:55:57;;;;;;;4.15;2.30;;;15.80;94.40;;;;;;5054092;28;20426;-79
2021/06/30 06:58:23;;;;;;;4.15;2.30;;;15.90;94.40;;;;;;5037740;28;20544;-79
2021/06/30 07:00:49;;;;;;;4.78;2.05;;;15.90;94.40;;;;;;5055391;28;20159;-78
2021/06/30 07:03:14;;;;;;;5.28;1.95;;;15.90;94.30;;;;;;5055277;28;20500;-78
2021/06/30 07:05:40;;;;;;;2.97;1.83;;;15.90;94.50;;;;;;5055252;28;20037;-77
2021/06/30 07:08:06;;;;;;;3.58;1.90;;;16.00;94.30;;;;;;5070515;28;20033;-78
2021/06/30 07:10:32;;;;;;;3.00;1.70;;;16.00;94.20;;;;;;5055221;28;20036;-78
2021/06/30 07:12:58;;;;;;;2.88;1.75;;;16.00;94.20;;;;;;5055126;28;20029;-78
2021/06/30 07:15:23;;;;;;;2.63;1.40;;;16.10;94.20;;;;;;5055037;28;20064;-78
2021/06/30 07:17:49;;;;;;;3.45;1.90;;;16.10;94.20;;;;;;5055034;28;20029;-78
2021/06/30 07:20:14;;;;;;;3.75;1.85;;;16.20;94.20;;;;;;5053858;28;20040;-78
2021/06/30 07:22:40;;;;;;;3.35;2.08;;;16.20;94.10;;;;;;5054692;28;20136;-79
2021/06/30 07:25:06;;;;;;;3.58;1.83;;;16.20;94.00;;;;;;5053832;28;20033;-78
2021/06/30 07:27:32;;;;;;;3.58;1.92;;;16.30;93.90;;;;;;5053536;28;20052;-78
2021/06/30 07:29:58;;;;;;;3.10;1.77;;;16.20;93.80;;;;;;5036930;28;20060;-78
2021/06/30 07:32:23;;;;;;;4.25;2.03;;;16.30;93.90;;;;;;5054552;28;20484;-78
2021/06/30 07:34:49;;;;;;;3.38;2.05;;;16.30;94.10;;;;;;5053332;28;20025;-78
2021/06/30 07:37:15;;;;;;;4.32;2.08;;;16.40;93.90;;;;;;5036705;28;20033;-78
2021/06/30 07:39:40;;;;;;;2.67;1.60;;;16.50;93.80;;;;;;5054531;28;20029;-79
2021/06/30 07:42:06;;;;;;;3.80;1.55;;;16.50;93.70;;;;;;5036592;28;20029;-78
2021/06/30 07:44:32;;;;;;;3.47;1.90;;;16.60;93.60;;;;;;5053223;28;20029;-79
2021/06/30 07:46:57;;;;;;;3.63;2.30;;;16.60;93.50;;;;;;5054450;28;20480;-79
2021/06/30 07:49:23;;;;;;;3.17;2.00;;;16.70;93.40;;;;;;5053247;28;20477;-79
2021/06/30 07:51:50;;;;;;;3.15;2.10;;;16.70;93.40;;;;;;5054378;28;20025;-78
2021/06/30 07:54:17;;;;;;;3.97;2.35;;;16.70;93.40;;;;;;5053370;28;20029;-78
2021/06/30 07:56:42;;;;;;;4.25;2.05;;;16.80;93.30;;;;;;5053026;28;20032;-78
2021/06/30 07:59:10;;;;;;;4.82;1.83;;;16.90;93.30;;;;;;5036398;28;20473;-79
2021/06/30 08:01:36;;;;;;;3.15;1.88;;;16.90;93.20;;;;;;5053187;28;20036;-79
2021/06/30 08:04:03;;;;;;;3.60;2.40;;;17.00;93.20;;;;;;5052812;28;20060;-79
2021/06/30 08:06:29;;;;;;;3.65;1.98;;;17.00;93.10;;;;;;5054280;28;20035;-79
2021/06/30 08:08:55;;;;;;;6.07;1.90;;;17.10;93.00;;;;;;5054001;28;20037;-78
2021/06/30 08:11:23;;;;;;;3.00;2.10;;;17.10;92.90;;;;;;5069513;28;20480;-79
2021/06/30 08:13:50;;;;;;;5.30;2.20;;;17.10;92.70;;;;;;5052960;28;20029;-78
2021/06/30 08:16:15;;;;;;;3.42;2.30;;;17.10;93.00;;;;;;5053982;28;20033;-79
2021/06/30 08:18:41;;;;;;;3.65;1.95;;;17.10;92.60;;;;;;5052603;28;20370;-79
2021/06/30 08:21:07;;;;;;;3.80;1.92;;;17.20;92.60;;;;;;5053811;28;20033;-79
2021/06/30 08:23:32;;;;;;;3.85;1.90;;;17.20;92.50;;;;;;5068886;28;20056;-78
2021/06/30 08:25:58;;;;;;;3.97;2.40;;;17.20;92.40;;;;;;5053772;28;20107;-79
2021/06/30 08:28:25;;;;;;;4.00;2.45;;;17.20;92.10;;;;;;5052467;28;20029;-78
2021/06/30 08:30:51;;;;;;;3.45;2.33;;;17.10;92.00;;;;;;5052385;28;20025;-78
2021/06/30 08:33:18;;;;;;;3.05;2.10;;;17.10;92.00;;;;;;5053697;28;20025;-79
2021/06/30 08:35:43;;;;;;;4.10;2.30;;;17.00;92.00;;;;;;5053600;28;20025;-79
2021/06/30 08:38:09;;;;;;;3.38;2.20;;;17.00;92.00;;;;;;5052539;28;20032;-79
2021/06/30 08:40:37;;;;;;;5.90;2.30;;;17.00;92.00;;;;;;5052269;28;20481;-79
2021/06/30 08:43:07;;;;;;;5.68;2.65;;;17.00;92.20;;;;;;5053421;28;20028;-78
2021/06/30 08:45:33;;;;;;;5.07;2.40;;;17.10;92.00;;;;;;5053369;28;20033;-78
2021/06/30 08:48:01;;;;;;;3.97;2.95;;;17.10;92.00;;;;;;5052947;28;20532;-78
2021/06/30 08:50:28;;;;;;;4.35;2.80;;;17.10;91.80;;;;;;5053381;28;20053;-78
2021/06/30 08:52:54;;;;;;;3.30;2.08;;;17.10;91.80;;;;;;5052130;28;20025;-78
2021/06/30 08:55:21;;;;;;;4.85;2.20;;;17.10;91.90;;;;;;5052288;28;20029;-79
2021/06/30 08:57:48;;;;;;;3.47;1.58;;;17.00;91.80;;;;;;5053221;28;20074;-78
2021/06/30 09:00:15;;;;;;;3.70;1.80;;;17.10;91.90;;;;;;5053169;28;20029;-79
2021/06/30 09:02:46;;;;;;;4.82;2.63;;;17.10;91.90;;;;;;5039578;28;20539;-78
2021/06/30 09:07:48;;;;;;;4.55;2.30;;;17.10;91.90;;;;;;5074643;28;20488;-78
2021/06/30 09:10:38;;;;;;;3.90;2.33;;;17.10;91.80;;;;;;5071345;28;20468;-78
2021/06/30 09:13:06;;;;;;;4.97;2.60;;;17.10;91.80;;;;;;5073686;28;20025;-78
2021/06/30 09:15:33;;;;;;;3.95;2.90;;;17.00;91.80;;;;;;5072493;28;20013;-78
2021/06/30 09:18:32;;;;;;;4.43;2.60;;;16.90;91.80;;;;;;5071411;28;20032;-78
2021/06/30 09:21:23;;;;;;;5.43;2.85;;;16.90;92.00;;;;;;5064283;28;20035;-79
2021/06/30 09:24:08;;;;;;;5.07;3.00;;;16.90;92.00;;;;;;5070366;28;20044;-78
2021/06/30 09:26:56;;;;;;;4.30;2.70;;;16.90;92.00;;;;;;5072428;28;20133;-79
2021/06/30 09:29:22;;;;;;;2.88;1.55;;;17.00;92.10;;;;;;5078114;28;20021;-79
2021/06/30 09:31:51;;;;;;;3.90;2.38;;;17.00;92.20;;;;;;5071437;28;20077;-78
2021/06/30 09:34:22;;;;;;;2.55;1.70;;;17.00;92.10;;;;;;5078195;28;20384;-78
2021/06/30 09:36:53;;;;;;;3.33;1.80;;;17.10;92.10;;;;;;5073664;28;20080;-79
2021/06/30 09:39:19;;;;;;;3.60;2.20;;;17.10;92.00;;;;;;5073093;28;20469;-79
2021/06/30 09:41:45;;;;;;;2.50;1.30;;;17.10;91.90;;;;;;5055394;28;20078;-78
2021/06/30 09:44:13;;;;;;;4.45;2.13;;;17.10;91.90;;;;;;5073023;28;20064;-78
2021/06/30 09:46:42;;;;;;;3.53;1.80;;;17.10;91.90;;;;;;5073014;28;20107;-78
2021/06/30 09:49:19;;;;;;;4.60;2.15;;;17.10;91.90;;;;;;5071705;28;20392;-78
2021/06/30 09:52:01;;;;;;;2.75;1.73;;;17.10;92.00;;;;;;5070984;28;20032;-79
2021/06/30 09:54:30;;;;;;;5.47;1.88;;;17.10;92.00;;;;;;5072199;28;20035;-78
2021/06/30 09:57:03;;;;;;;3.15;2.05;;;17.10;92.00;;;;;;5072987;28;20036;-79
2021/06/30 09:59:36;;;;;;;4.43;2.20;;;17.10;92.00;;;;;;5058049;28;20063;-79
2021/06/30 10:02:01;;;;;;;3.28;1.70;;;17.10;92.00;;;;;;5076362;28;20016;-78
2021/06/30 10:04:48;;;;;;;3.00;1.90;;;17.00;92.00;;;;;;5076501;28;20082;-79
2021/06/30 10:07:22;;;;;;;3.60;1.95;;;17.00;92.00;;;;;;5074894;28;20032;-79
2021/06/30 10:09:48;;;;;;;;;;;17.10;92.10;;;;;;5076499;28;20028;-78
2021/06/30 10:12:21;;;;;;;3.33;1.80;;;17.00;92.00;;;;;;5076064;28;19904;-78
2021/06/30 10:14:47;;;;;;;4.25;1.95;;;17.10;92.10;;;;;;5074758;28;20418;-79
2021/06/30 10:17:14;;;;;;;3.75;2.40;;;17.00;92.10;;;;;;5075715;28;20033;-78
2021/06/30 10:19:42;;;;;;;4.68;2.75;;;17.00;92.10;;;;;;5074563;28;20443;-78
2021/06/30 10:22:10;;;;;;;3.80;2.25;;;17.10;92.10;;;;;;5076271;28;20017;-79
2021/06/30 10:24:37;;;;;;;3.85;2.33;;;17.10;92.20;;;;;;5075700;28;20045;-79
2021/06/30 10:27:04;;;;;;;3.80;2.28;;;17.20;92.20;;;;;;5075792;28;20028;-79
2021/06/30 10:29:32;;;;;;;4.75;2.65;;;17.20;92.20;;;;;;5057999;28;20055;-79
2021/06/30 10:32:10;;;;;;;4.43;2.40;;;17.40;92.20;;;;;;5075846;28;20052;-79
2021/06/30 10:34:43;;;;;;;5.50;2.88;;;17.40;92.10;;;;;;5074518;28;20040;-78
2021/06/30 10:37:35;;;;;;;4.15;2.45;;;17.50;92.00;;;;;;5075709;28;20055;-78
2021/06/30 10:40:08;;;;;;;4.55;2.92;;;17.40;91.80;;;;;;5074209;28;20017;-80
2021/06/30 10:42:37;;;;;;;3.70;2.30;;;17.50;91.60;;;;;;5071885;28;20035;-79
2021/06/30 10:45:18;;;;;;;4.72;3.10;;;17.50;91.60;;;;;;5074029;28;20029;-79
2021/06/30 10:48:01;;;;;;;4.88;2.30;;;17.50;91.60;;;;;;5074064;28;20086;-79
2021/06/30 10:50:44;;;;;;;5.25;2.33;;;17.60;91.70;;;;;;5075308;28;20024;-79
2021/06/30 10:53:11;;;;;;;3.88;2.25;;;17.70;91.80;;;;;;5073767;28;20070;-76
2021/06/30 10:55:40;;;;;;;3.75;2.10;;;17.90;91.70;;;;;;5075356;28;20513;-79
2021/06/30 10:58:12;;;;;;;2.92;1.83;;;18.00;91.50;;;;;;5075758;28;20024;-77
2021/06/30 11:00:42;;;;;;;4.05;2.22;;;18.10;91.20;;;;;;5071051;28;20072;-81
2021/06/30 11:03:30;;;;;;;4.15;2.10;;;18.20;91.20;;;;;;5057443;28;20020;-78
2021/06/30 11:06:29;;;;;;;3.58;1.90;;;18.30;90.90;;;;;;5082210;28;20131;-78
2021/06/30 11:09:02;;;;;;;3.78;2.55;;;18.40;90.60;;;;;;5054259;28;20051;-80
2021/06/30 11:11:34;;;;;;;3.63;2.17;;;18.40;90.40;;;;;;5061762;28;20421;-79
2021/06/30 11:14:13;;;;;;;5.13;3.33;;;18.50;90.40;;;;;;5059183;28;20027;-79
2021/06/30 11:16:44;;;;;;;4.72;2.83;;;18.40;89.90;;;;;;5060762;28;20021;-79
2021/06/30 11:19:18;;;;;;;5.53;3.67;;;18.30;89.90;;;;;;5057094;28;20020;-79
2021/06/30 11:21:58;;;;;;;5.40;3.25;;;18.20;89.90;;;;;;5056212;28;20021;-80
2021/06/30 11:29:56;;;;;;;6.47;3.92;;;18.20;90.20;;;;;;5064488;28;20059;-78
2021/06/30 11:32:37;;;;;;;5.47;3.30;;;18.20;90.10;;;;;;5074758;28;20103;-78
2021/06/30 11:35:09;;;;;;;4.70;3.70;;;18.20;90.10;;;;;;5066247;28;20111;-78
2021/06/30 11:37:42;;;;;;;5.60;4.50;;;18.20;90.00;;;;;;5079481;28;20094;-79
2021/06/30 11:40:20;;;;;;;6.25;4.22;;;18.20;89.90;;;;;;5073357;28;20040;-78
2021/06/30 11:42:50;;;;;;;5.63;4.15;;;18.10;90.00;;;;;;5070260;28;20021;-78
2021/06/30 11:45:16;;;;;;;6.45;4.13;;;18.10;90.00;;;;;;5056890;28;20480;-78
2021/06/30 11:47:43;;;;;;;7.35;3.78;;;18.10;90.00;;;;;;5074366;28;20484;-78
2021/06/30 11:50:16;;;;;;;7.00;4.50;;;18.00;90.00;;;;;;5070988;28;20489;-78
2021/06/30 11:52:42;;;;;;;12.63;5.05;;;18.10;90.10;;;;;;5063401;28;20021;-77
2021/06/30 11:55:08;;;;;;;6.82;5.10;;;18.00;90.30;;;;;;5065884;28;20024;-78
2021/06/30 11:57:34;;;;;;;5.93;4.80;;;18.00;90.00;;;;;;5056524;28;20032;-78
2021/06/30 12:00:12;;;;;;;6.20;4.80;;;18.00;90.00;;;;;;5052850;28;20430;-78
2021/06/30 12:02:49;;;;;;;7.15;4.60;;;18.00;90.00;;;;;;5088610;28;20024;-78
2021/06/30 12:05:16;;;;;;;8.70;4.90;;;17.90;90.00;;;;;;5070000;28;20039;-78
2021/06/30 12:07:43;;;;;;;9.00;4.88;;;17.90;90.00;;;;;;5073828;28;20032;-79
2021/06/30 12:10:09;;;;;;;8.05;5.50;;;17.90;90.10;;;;;;5073013;28;20511;-78
2021/06/30 12:12:35;;;;;;;9.32;5.47;;;17.80;90.10;;;;;;5056475;28;20422;-78
2021/06/30 12:15:03;;;;;;;9.95;6.00;;;17.80;90.20;;;;;;5072555;28;20074;-78
2021/06/30 12:17:30;;;;;;;8.13;5.15;;;17.70;90.20;;;;;;5073994;28;20024;-78
2021/06/30 12:19:57;;;;;;;8.32;4.75;;;17.70;90.20;;;;;;5072827;28;20032;-78
2021/06/30 12:22:37;;;;;;;9.02;4.78;;;17.60;90.20;;;;;;5055526;28;20392;-78
2021/06/30 12:25:20;;;;;;;8.93;5.40;;;17.70;90.30;;;;;;5073803;28;20099;-78
2021/06/30 12:27:59;;;;;;;6.73;5.37;;;17.60;90.30;;;;;;5072730;28;20024;-78
2021/06/30 12:30:29;;;;;;;6.45;4.55;;;17.60;90.40;;;;;;5073890;28;20029;-78
2021/06/30 12:32:57;;;;;;;6.35;4.60;;;17.60;90.50;;;;;;5073955;28;20079;-78
2021/06/30 12:35:27;;;;;;;8.90;4.97;;;17.60;90.50;;;;;;5073790;28;20381;-78
2021/06/30 12:38:04;;;;;;;7.47;4.28;;;17.60;90.50;;;;;;5072416;28;20028;-78
2021/06/30 12:40:32;;;;;;;6.75;4.40;;;17.70;90.50;;;;;;5072715;28;20025;-78
2021/06/30 12:43:04;;;;;;;8.45;4.82;;;17.60;90.50;;;;;;5055727;28;20432;-78
2021/06/30 12:45:46;;;;;;;5.93;4.15;;;17.70;90.60;;;;;;5072556;28;20028;-78
2021/06/30 12:48:21;;;;;;;6.80;4.47;;;17.70;90.60;;;;;;5071665;28;20024;-78
2021/06/30 12:50:49;;;;;;;6.50;4.07;;;17.70;90.60;;;;;;5071948;28;20052;-78
2021/06/30 12:53:23;;;;;;;6.40;4.63;;;17.70;90.50;;;;;;5072508;28;20039;-79
2021/06/30 12:55:54;;;;;;;;;;;17.70;90.50;;;;;;5071495;28;20440;-79
2021/06/30 12:58:20;;;;;;;6.53;4.25;;;17.70;90.50;;;;;;5071342;28;19923;-79
2021/06/30 13:01:01;;;;;;;10.48;5.25;;;17.70;90.50;;;;;;5069077;28;20032;-79